Time;durP1;ratioP1;P1;durP2;ratioP2;P2;SDS_P1;SDS_P2;PMS_P1;PMS_P2;Temp;Humidity;BMP_temperature;BMP_pressure;BME280_temperature;BME280_humidity;BME280_pressure;Samples;Min_cycle;Max_cycle;Signal;HPM_P1;HPM_P2
2021/01/13 00:01:44;;;;;;;8.27;2.63;;;3.10;1.00;;;;;;4992401;28;20353;-65
2021/01/13 00:04:11;;;;;;;2.40;2.20;;;3.20;1.00;;;;;;4994209;28;20195;-65
2021/01/13 00:06:36;;;;;;;7.35;2.00;;;3.10;1.00;;;;;;4993169;28;20267;-65
2021/01/13 00:09:03;;;;;;;3.37;2.40;;;3.20;1.00;;;;;;4991108;28;20306;-65
2021/01/13 00:11:29;;;;;;;6.00;2.30;;;3.20;1.00;;;;;;4993043;28;20210;-65
2021/01/13 00:13:54;;;;;;;5.90;2.13;;;3.20;1.00;;;;;;4992593;28;20207;-65
2021/01/13 00:16:20;;;;;;;3.43;2.37;;;3.20;1.00;;;;;;5006647;28;20273;-65
2021/01/13 00:18:48;;;;;;;1.90;1.70;;;3.20;1.00;;;;;;4990904;28;20238;-64
2021/01/13 00:21:15;;;;;;;5.43;2.28;;;3.20;1.00;;;;;;4992674;28;20481;-65
2021/01/13 00:23:47;;;;;;;3.60;2.22;;;3.20;1.00;;;;;;4991938;28;20318;-65
2021/01/13 00:26:22;;;;;;;6.00;2.38;;;3.20;1.00;;;;;;4993073;28;20172;-64
2021/01/13 00:28:54;;;;;;;3.00;2.35;;;3.20;1.00;;;;;;4990248;28;20221;-65
2021/01/13 00:31:20;;;;;;;7.07;2.20;;;3.20;1.00;;;;;;4992812;28;20263;-65
2021/01/13 00:33:50;;;;;;;3.38;2.40;;;3.30;1.00;;;;;;4992496;28;20646;-65
2021/01/13 00:36:25;;;;;;;3.50;2.60;;;3.20;1.00;;;;;;4993060;28;20175;-65
2021/01/13 00:38:51;;;;;;;7.07;2.30;;;3.30;1.00;;;;;;4992057;28;20195;-65
2021/01/13 00:41:17;;;;;;;4.90;3.15;;;3.30;1.00;;;;;;4991411;28;20257;-65
2021/01/13 00:43:44;;;;;;;3.90;2.10;;;3.30;1.00;;;;;;4992087;28;20214;-65
2021/01/13 00:46:10;;;;;;;3.65;2.10;;;3.30;1.00;;;;;;4992843;28;20247;-64
2021/01/13 00:48:35;;;;;;;1.93;1.80;;;3.30;1.00;;;;;;4991167;28;20285;-64
2021/01/13 00:51:02;;;;;;;2.70;2.17;;;3.30;1.00;;;;;;4991736;28;20222;-65
2021/01/13 00:53:28;;;;;;;3.38;2.30;;;3.30;1.00;;;;;;4990180;28;20234;-65
2021/01/13 00:55:53;;;;;;;9.33;2.77;;;3.40;1.00;;;;;;4989905;28;20191;-64
2021/01/13 00:58:21;;;;;;;5.60;2.50;;;3.30;1.00;;;;;;4992997;28;20195;-64
2021/01/13 01:00:46;;;;;;;3.65;2.05;;;3.20;1.00;;;;;;4990192;28;20191;-65
2021/01/13 01:03:12;;;;;;;5.60;2.20;;;3.30;1.00;;;;;;4992894;28;20235;-64
2021/01/13 01:05:37;;;;;;;3.17;2.13;;;3.20;1.00;;;;;;4991045;28;20198;-65
2021/01/13 01:08:03;;;;;;;5.93;2.20;;;3.30;1.00;;;;;;4990628;28;20180;-64
2021/01/13 01:10:32;;;;;;;3.07;1.87;;;3.30;1.00;;;;;;4991569;28;20206;-64
2021/01/13 01:12:58;;;;;;;2.90;1.95;;;3.30;1.00;;;;;;4991960;28;20191;-64
2021/01/13 01:15:24;;;;;;;4.88;1.80;;;3.30;1.00;;;;;;4991309;28;20636;-65
2021/01/13 01:17:50;;;;;;;2.87;2.00;;;3.30;1.00;;;;;;4989757;28;20219;-65
2021/01/13 01:20:17;;;;;;;3.60;1.88;;;3.30;1.00;;;;;;4988413;28;20663;-65
2021/01/13 01:23:09;;;;;;;9.18;2.47;;;3.30;1.00;;;;;;4991219;28;20184;-64
2021/01/13 01:25:35;;;;;;;2.72;2.05;;;3.20;1.00;;;;;;4985969;28;20289;-64
2021/01/13 01:28:01;;;;;;;3.28;2.08;;;3.30;1.00;;;;;;4991073;28;20194;-64
2021/01/13 01:30:28;;;;;;;2.83;2.13;;;3.30;1.00;;;;;;4991673;28;20581;-64
2021/01/13 01:32:55;;;;;;;5.15;2.00;;;3.20;1.00;;;;;;4990077;28;20195;-64
2021/01/13 01:35:21;;;;;;;1.70;1.60;;;3.20;1.00;;;;;;4990160;28;20215;-64
2021/01/13 01:37:47;;;;;;;6.10;2.28;;;3.20;1.00;;;;;;4989284;28;20192;-64
2021/01/13 01:40:15;;;;;;;3.00;2.73;;;3.20;1.00;;;;;;5004416;28;20236;-64
2021/01/13 01:42:51;;;;;;;2.85;1.60;;;3.20;1.00;;;;;;5002965;28;20518;-64
2021/01/13 01:45:23;;;;;;;3.28;1.85;;;3.20;1.00;;;;;;4990678;28;20659;-64
2021/01/13 01:48:15;;;;;;;6.80;2.03;;;3.20;1.00;;;;;;4990235;28;20260;-64
2021/01/13 01:50:45;;;;;;;3.35;2.08;;;3.10;1.00;;;;;;4990645;28;20191;-64
2021/01/13 01:53:15;;;;;;;3.35;2.22;;;3.10;1.00;;;;;;4990601;28;21036;-64
2021/01/13 01:55:50;;;;;;;5.15;2.17;;;3.10;1.00;;;;;;4989985;28;20222;-65
2021/01/13 01:58:24;;;;;;;10.40;2.47;;;3.10;1.00;;;;;;4986947;28;20193;-65
2021/01/13 02:00:54;;;;;;;5.75;2.05;;;3.10;1.00;;;;;;4984402;28;20211;-66
2021/01/13 02:03:23;;;;;;;4.38;2.10;;;3.10;1.00;;;;;;4990117;28;20228;-64
2021/01/13 02:05:56;;;;;;;5.15;2.47;;;3.10;1.00;;;;;;4990759;28;20270;-64
2021/01/13 02:08:21;;;;;;;2.63;2.00;;;3.10;1.00;;;;;;4988333;28;20191;-64
2021/01/13 02:10:51;;;;;;;6.30;2.50;;;3.10;1.00;;;;;;4990549;28;20219;-64
2021/01/13 02:13:19;;;;;;;5.18;2.50;;;3.10;1.00;;;;;;4990681;28;20197;-64
2021/01/13 02:15:48;;;;;;;3.88;1.95;;;3.10;1.00;;;;;;4991272;28;20601;-64
2021/01/13 02:18:17;;;;;;;3.67;2.15;;;3.20;1.00;;;;;;4989241;28;20179;-64
2021/01/13 02:20:49;;;;;;;4.13;2.00;;;3.10;1.00;;;;;;4987775;28;20222;-64
2021/01/13 02:23:34;;;;;;;3.90;2.13;;;3.10;1.00;;;;;;4990229;28;20243;-64
2021/01/13 02:26:36;;;;;;;3.50;2.17;;;3.10;1.00;;;;;;4991076;28;20187;-64
2021/01/13 02:29:08;;;;;;;2.47;2.25;;;3.00;1.00;;;;;;4988214;28;20186;-64
2021/01/13 02:31:47;;;;;;;2.83;2.10;;;3.10;1.00;;;;;;4989865;28;20187;-64
2021/01/13 02:34:24;;;;;;;3.05;1.92;;;3.10;1.00;;;;;;4988870;28;20242;-64
2021/01/13 02:37:19;;;;;;;2.92;2.20;;;3.10;1.00;;;;;;4983716;28;20186;-65
2021/01/13 02:39:46;;;;;;;4.20;1.92;;;3.10;1.00;;;;;;4989830;28;20261;-64
2021/01/13 02:42:20;;;;;;;4.28;2.50;;;3.10;1.00;;;;;;4990463;28;20207;-64
2021/01/13 02:45:18;;;;;;;2.47;2.28;;;3.10;1.00;;;;;;4989187;28;20191;-64
2021/01/13 02:48:02;;;;;;;4.80;2.55;;;3.10;1.00;;;;;;4989510;28;20959;-64
2021/01/13 02:50:37;;;;;;;4.32;2.20;;;3.10;1.00;;;;;;4979938;28;20187;-64
2021/01/13 02:53:14;;;;;;;4.25;2.50;;;3.10;1.00;;;;;;4990299;28;20190;-64
2021/01/13 02:56:03;;;;;;;7.70;2.40;;;3.10;1.00;;;;;;4988703;28;20603;-64
2021/01/13 02:58:38;;;;;;;3.42;2.22;;;3.10;1.00;;;;;;4997792;28;20226;-64
2021/01/13 03:01:07;;;;;;;3.88;2.42;;;3.20;1.00;;;;;;4990893;28;20180;-64
2021/01/13 03:03:33;;;;;;;5.93;2.15;;;3.20;1.00;;;;;;4988637;28;20187;-64
2021/01/13 03:06:07;;;;;;;9.27;3.30;;;3.20;1.00;;;;;;4987875;28;20180;-65
2021/01/13 03:08:51;;;;;;;4.45;2.60;;;3.20;1.00;;;;;;4989626;28;20694;-64
2021/01/13 03:11:20;;;;;;;3.55;2.13;;;3.20;1.00;;;;;;4990080;28;20201;-64
2021/01/13 03:13:46;;;;;;;4.80;2.17;;;3.20;1.00;;;;;;5002896;28;20191;-64
2021/01/13 03:16:13;;;;;;;4.35;2.03;;;3.20;1.00;;;;;;4989490;28;20187;-64
2021/01/13 03:19:02;;;;;;;3.22;2.08;;;3.20;1.00;;;;;;4987663;28;20230;-64
2021/01/13 03:21:40;;;;;;;5.97;2.20;;;3.20;1.00;;;;;;4989337;28;20607;-64
2021/01/13 03:24:15;;;;;;;3.38;2.28;;;3.30;1.00;;;;;;4989500;28;20202;-64
2021/01/13 03:26:47;;;;;;;8.38;2.10;;;3.20;1.00;;;;;;4988761;28;20195;-64
2021/01/13 03:29:21;;;;;;;2.15;1.80;;;3.20;1.00;;;;;;4970758;28;20263;-64
2021/01/13 03:32:07;;;;;;;3.30;1.80;;;3.20;1.00;;;;;;4979977;28;20185;-64
2021/01/13 03:35:05;;;;;;;4.57;2.08;;;3.20;1.00;;;;;;4982970;28;20206;-64
2021/01/13 03:37:57;;;;;;;5.78;2.30;;;3.20;1.00;;;;;;4988742;28;20203;-64
2021/01/13 03:40:25;;;;;;;7.75;2.15;;;3.20;1.00;;;;;;4989947;28;20230;-64
2021/01/13 03:42:53;;;;;;;3.38;2.17;;;3.10;1.00;;;;;;4988362;28;20194;-64
2021/01/13 03:45:31;;;;;;;4.60;1.95;;;3.20;1.00;;;;;;4988664;28;20187;-64
2021/01/13 03:48:02;;;;;;;4.53;2.60;;;3.20;1.00;;;;;;4988831;28;20191;-64
2021/01/13 03:50:37;;;;;;;6.13;2.58;;;3.20;1.00;;;;;;4988030;28;20210;-64
2021/01/13 03:53:10;;;;;;;4.63;2.30;;;3.20;1.00;;;;;;4989026;28;20183;-64
2021/01/13 03:55:40;;;;;;;3.10;2.20;;;3.30;1.00;;;;;;4980618;28;20318;-64
2021/01/13 03:58:08;;;;;;;3.05;2.35;;;3.20;1.00;;;;;;4989477;28;20219;-64
2021/01/13 04:00:59;;;;;;;4.55;2.60;;;3.20;1.00;;;;;;4978353;28;20201;-66
2021/01/13 04:03:40;;;;;;;6.90;2.05;;;3.20;1.00;;;;;;4987032;28;20188;-64
2021/01/13 04:06:10;;;;;;;4.85;2.10;;;3.20;1.00;;;;;;4990996;28;20191;-64
2021/01/13 04:08:39;;;;;;;6.57;2.38;;;3.20;1.00;;;;;;4987065;28;20187;-64
2021/01/13 04:11:10;;;;;;;4.55;2.20;;;3.10;1.00;;;;;;4989605;28;20525;-64
2021/01/13 04:13:48;;;;;;;3.90;2.67;;;3.10;1.00;;;;;;4987885;28;20232;-64
2021/01/13 04:16:16;;;;;;;7.38;1.67;;;3.10;1.00;;;;;;4989550;28;20285;-64
2021/01/13 04:18:44;;;;;;;4.45;2.10;;;3.00;1.00;;;;;;4986786;28;20657;-64
2021/01/13 04:21:13;;;;;;;4.07;2.42;;;3.10;1.00;;;;;;4989409;28;20350;-65
2021/01/13 04:23:40;;;;;;;7.80;2.47;;;3.10;1.00;;;;;;4988245;28;20215;-64
2021/01/13 04:26:06;;;;;;;4.68;1.80;;;3.00;1.00;;;;;;4989605;28;20214;-65
2021/01/13 04:28:32;;;;;;;5.97;1.90;;;3.00;1.00;;;;;;4989661;28;20229;-64
2021/01/13 04:30:58;;;;;;;5.88;2.58;;;3.00;1.00;;;;;;4992229;28;20274;-64
2021/01/13 04:33:24;;;;;;;3.90;2.42;;;3.10;1.00;;;;;;4991907;28;20187;-64
2021/01/13 04:35:51;;;;;;;6.20;2.40;;;3.10;1.00;;;;;;4991473;28;20687;-64
2021/01/13 04:38:32;;;;;;;4.10;2.20;;;3.10;1.00;;;;;;4991984;28;20437;-64
2021/01/13 04:41:13;;;;;;;3.38;1.92;;;3.10;1.00;;;;;;4990059;28;20250;-64
2021/01/13 04:43:51;;;;;;;5.47;2.30;;;3.10;1.00;;;;;;4990089;28;20197;-64
2021/01/13 04:46:29;;;;;;;5.50;2.35;;;3.10;1.00;;;;;;4992687;28;20187;-64
2021/01/13 04:49:16;;;;;;;3.92;2.28;;;3.00;1.00;;;;;;4991343;28;20262;-64
2021/01/13 04:51:43;;;;;;;2.40;2.17;;;3.00;1.00;;;;;;4990155;28;20187;-64
2021/01/13 04:54:12;;;;;;;3.72;2.10;;;3.10;1.00;;;;;;4991327;28;20211;-64
2021/01/13 04:56:44;;;;;;;5.05;2.00;;;3.10;1.00;;;;;;4987378;28;20254;-65
2021/01/13 04:59:41;;;;;;;4.57;2.17;;;3.00;1.00;;;;;;4991319;28;20649;-64
2021/01/13 05:02:16;;;;;;;3.78;1.92;;;3.10;1.00;;;;;;4990800;28;20192;-64
2021/01/13 05:04:47;;;;;;;7.35;2.10;;;3.00;1.00;;;;;;4988788;28;20218;-65
2021/01/13 05:07:36;;;;;;;5.45;2.50;;;3.00;1.00;;;;;;4990910;28;20282;-64
2021/01/13 05:10:15;;;;;;;4.05;2.10;;;3.00;1.00;;;;;;4988421;28;20238;-64
2021/01/13 05:12:43;;;;;;;5.55;2.40;;;3.00;1.00;;;;;;4991541;28;20222;-64
2021/01/13 05:15:23;;;;;;;6.18;2.67;;;3.00;1.00;;;;;;4987578;28;20209;-65
2021/01/13 05:17:58;;;;;;;3.67;2.10;;;3.00;1.00;;;;;;4989507;28;20183;-65
2021/01/13 05:20:27;;;;;;;4.10;2.10;;;3.10;1.00;;;;;;4984019;28;20201;-64
2021/01/13 05:22:54;;;;;;;4.03;2.45;;;3.00;1.00;;;;;;4981344;28;20182;-64
2021/01/13 05:25:41;;;;;;;4.53;2.40;;;3.00;1.00;;;;;;4981941;28;20206;-63
2021/01/13 05:28:07;;;;;;;4.60;2.20;;;2.90;1.00;;;;;;4980495;28;20218;-64
2021/01/13 05:30:39;;;;;;;4.95;2.15;;;2.80;1.00;;;;;;4997328;28;20615;-65
2021/01/13 05:33:09;;;;;;;4.68;2.40;;;2.90;1.00;;;;;;4981470;28;20284;-64
2021/01/13 05:35:37;;;;;;;4.90;2.60;;;2.90;1.00;;;;;;4982727;28;20226;-65
2021/01/13 05:38:15;;;;;;;7.97;2.47;;;2.80;1.00;;;;;;4988460;28;20178;-65
2021/01/13 05:40:53;;;;;;;5.05;2.42;;;2.80;1.00;;;;;;4989700;28;20230;-65
2021/01/13 05:43:20;;;;;;;7.60;2.60;;;2.90;1.00;;;;;;4992033;28;20241;-64
2021/01/13 05:45:47;;;;;;;4.78;2.63;;;2.90;1.00;;;;;;4990952;28;20191;-65
2021/01/13 05:48:15;;;;;;;2.92;2.03;;;2.90;1.00;;;;;;4991522;28;20210;-65
2021/01/13 05:50:41;;;;;;;4.88;2.53;;;2.80;1.00;;;;;;4990634;28;20249;-64
2021/01/13 05:53:08;;;;;;;7.38;2.70;;;2.80;1.00;;;;;;4990410;28;20571;-64
2021/01/13 05:55:34;;;;;;;7.45;2.80;;;2.80;1.00;;;;;;4990207;28;20241;-64
2021/01/13 05:58:02;;;;;;;7.93;3.00;;;2.80;1.00;;;;;;4992251;28;20673;-63
2021/01/13 06:00:30;;;;;;;4.68;2.55;;;2.80;1.00;;;;;;4988860;28;20441;-65
2021/01/13 06:03:00;;;;;;;6.70;2.80;;;2.80;1.00;;;;;;4989443;28;20714;-64
2021/01/13 06:05:28;;;;;;;3.95;2.85;;;2.90;1.00;;;;;;4991219;28;20225;-64
2021/01/13 06:07:59;;;;;;;4.90;2.40;;;2.90;1.00;;;;;;4989938;28;20190;-64
2021/01/13 06:10:28;;;;;;;8.43;2.78;;;2.80;1.00;;;;;;4989425;28;20198;-64
2021/01/13 06:12:57;;;;;;;6.20;2.75;;;2.90;1.00;;;;;;4990540;28;20186;-64
2021/01/13 06:15:24;;;;;;;3.65;2.60;;;2.90;1.00;;;;;;4989372;28;20633;-64
2021/01/13 06:17:52;;;;;;;9.27;3.35;;;2.90;1.00;;;;;;4990713;28;20203;-65
2021/01/13 06:20:20;;;;;;;6.95;2.60;;;3.00;1.00;;;;;;4991282;28;20176;-64
2021/01/13 06:22:48;;;;;;;6.97;2.80;;;3.00;1.00;;;;;;4987125;28;20198;-64
2021/01/13 06:25:20;;;;;;;3.40;3.00;;;3.00;1.00;;;;;;4990681;28;20179;-64
2021/01/13 06:28:05;;;;;;;6.25;2.97;;;3.00;1.00;;;;;;4990148;28;20274;-65
2021/01/13 06:30:40;;;;;;;8.18;2.67;;;3.10;1.00;;;;;;4978282;28;20678;-65
2021/01/13 06:33:10;;;;;;;7.03;3.55;;;3.10;1.00;;;;;;4989127;28;20589;-64
2021/01/13 06:35:42;;;;;;;3.63;2.75;;;3.10;1.00;;;;;;4989263;28;20206;-64
2021/01/13 06:38:14;;;;;;;7.93;3.33;;;3.10;1.00;;;;;;4990092;28;20245;-64
2021/01/13 06:40:41;;;;;;;5.68;3.13;;;3.00;1.00;;;;;;4988725;28;20238;-64
2021/01/13 06:43:14;;;;;;;7.00;3.25;;;3.10;1.00;;;;;;4990828;28;20626;-65
2021/01/13 06:45:40;;;;;;;8.38;4.20;;;3.00;1.00;;;;;;4989176;28;20218;-65
2021/01/13 06:48:07;;;;;;;3.90;2.97;;;3.00;1.00;;;;;;4989735;28;20183;-64
2021/01/13 06:50:41;;;;;;;5.00;3.38;;;3.00;1.00;;;;;;4989708;28;20246;-64
2021/01/13 06:53:08;;;;;;;4.45;3.22;;;2.90;1.00;;;;;;4989972;28;20177;-64
2021/01/13 06:55:36;;;;;;;6.50;2.85;;;2.90;1.00;;;;;;4989930;28;20334;-64
2021/01/13 06:58:12;;;;;;;5.75;2.42;;;2.80;1.00;;;;;;4990635;28;20219;-64
2021/01/13 07:00:37;;;;;;;5.22;3.40;;;2.90;1.00;;;;;;4988068;28;20194;-64
2021/01/13 07:03:25;;;;;;;5.17;3.30;;;2.90;1.00;;;;;;4990816;28;20910;-64
2021/01/13 07:05:52;;;;;;;5.70;3.63;;;2.90;1.00;;;;;;4990098;28;20221;-65
2021/01/13 07:08:19;;;;;;;4.85;3.00;;;2.80;1.00;;;;;;4988895;28;20214;-65
2021/01/13 07:10:45;;;;;;;7.47;3.58;;;2.90;1.00;;;;;;4989789;28;20555;-65
2021/01/13 07:13:12;;;;;;;8.40;3.07;;;3.00;1.00;;;;;;4989925;28;20191;-64
2021/01/13 07:15:39;;;;;;;7.18;3.08;;;3.00;1.00;;;;;;4989936;28;20561;-64
2021/01/13 07:18:05;;;;;;;4.90;2.97;;;3.00;1.00;;;;;;4989944;28;20844;-64
2021/01/13 07:20:39;;;;;;;7.50;3.00;;;3.00;1.00;;;;;;4989085;28;20203;-65
2021/01/13 07:23:06;;;;;;;6.15;2.50;;;3.00;1.00;;;;;;4991485;28;20190;-64
2021/01/13 07:25:31;;;;;;;3.78;2.70;;;3.00;1.00;;;;;;4988489;28;20243;-64
2021/01/13 07:28:03;;;;;;;5.33;2.90;;;3.10;1.00;;;;;;4989818;28;20186;-65
2021/01/13 07:30:32;;;;;;;5.32;2.97;;;3.10;1.00;;;;;;4988966;28;20183;-64
2021/01/13 07:32:59;;;;;;;7.25;2.47;;;3.20;1.00;;;;;;5004034;28;20191;-64
2021/01/13 07:35:30;;;;;;;6.25;2.65;;;3.20;1.00;;;;;;4989738;28;20218;-66
2021/01/13 07:38:03;;;;;;;7.05;3.20;;;3.10;1.00;;;;;;4989191;28;20237;-64
2021/01/13 07:40:34;;;;;;;3.25;1.92;;;3.10;1.00;;;;;;4989410;28;20285;-64
2021/01/13 07:43:04;;;;;;;3.88;2.63;;;3.10;1.00;;;;;;4989867;28;20595;-64
2021/01/13 07:45:37;;;;;;;7.07;2.92;;;3.10;1.00;;;;;;4988914;28;20746;-64
2021/01/13 07:48:28;;;;;;;5.15;2.55;;;3.10;1.00;;;;;;4989397;28;20175;-64
2021/01/13 07:51:07;;;;;;;5.78;2.53;;;3.00;1.00;;;;;;4987416;28;20215;-64
2021/01/13 07:53:37;;;;;;;6.20;2.78;;;3.10;1.00;;;;;;4987736;28;20188;-64
2021/01/13 07:56:04;;;;;;;3.55;2.55;;;3.20;1.00;;;;;;4987851;28;20199;-64
2021/01/13 07:58:34;;;;;;;4.93;2.60;;;3.30;1.00;;;;;;4989119;28;20183;-64
2021/01/13 08:01:19;;;;;;;3.42;2.65;;;3.40;1.00;;;;;;4986572;28;20228;-64
2021/01/13 08:04:21;;;;;;;3.53;2.58;;;3.50;1.00;;;;;;4985658;28;20266;-64
2021/01/13 08:06:53;;;;;;;7.13;2.85;;;3.40;1.00;;;;;;4992906;28;20241;-63
2021/01/13 08:09:23;;;;;;;4.03;2.63;;;3.50;1.00;;;;;;4992818;28;20180;-63
2021/01/13 08:12:09;;;;;;;4.60;2.70;;;3.50;1.00;;;;;;4992594;28;20183;-63
2021/01/13 08:14:43;;;;;;;4.68;3.22;;;3.50;1.00;;;;;;4992668;28;20195;-63
2021/01/13 08:17:17;;;;;;;5.85;2.97;;;3.50;1.00;;;;;;4992713;28;20183;-63
2021/01/13 08:20:22;;;;;;;6.03;2.70;;;3.50;1.00;;;;;;4992778;28;20179;-63
2021/01/13 08:23:26;;;;;;;5.35;3.00;;;3.50;1.00;;;;;;4988596;28;20175;-63
2021/01/13 08:25:55;;;;;;;5.30;2.90;;;3.60;1.00;;;;;;4992449;28;20183;-64
2021/01/13 08:28:22;;;;;;;6.75;3.50;;;3.70;1.00;;;;;;4992995;28;20184;-63
2021/01/13 08:30:54;;;;;;;6.00;2.63;;;3.60;1.00;;;;;;4976728;28;20311;-64
2021/01/13 08:33:22;;;;;;;6.57;2.72;;;3.70;1.00;;;;;;4988855;28;20262;-63
2021/01/13 08:35:52;;;;;;;6.28;3.53;;;3.70;1.00;;;;;;4991764;28;20199;-64
2021/01/13 08:38:18;;;;;;;7.22;2.75;;;3.80;1.00;;;;;;4991140;28;20262;-64
2021/01/13 08:40:44;;;;;;;4.37;2.47;;;3.80;1.00;;;;;;4989126;28;20346;-64
2021/01/13 08:43:13;;;;;;;8.05;2.40;;;4.00;1.00;;;;;;4991241;28;20434;-63
2021/01/13 08:45:44;;;;;;;8.57;2.78;;;4.00;1.00;;;;;;4990377;28;20211;-64
2021/01/13 08:48:15;;;;;;;3.58;2.00;;;4.00;1.00;;;;;;4991535;28;20202;-64
2021/01/13 08:50:43;;;;;;;5.93;2.70;;;4.30;1.00;;;;;;4991046;28;20176;-64
2021/01/13 08:53:24;;;;;;;6.28;2.58;;;4.30;1.00;;;;;;4991588;28;20211;-64
2021/01/13 08:55:53;;;;;;;7.03;3.15;;;4.30;1.00;;;;;;4991612;28;20208;-64
2021/01/13 08:58:29;;;;;;;3.28;2.80;;;4.20;1.00;;;;;;4990615;28;20231;-64
2021/01/13 09:01:05;;;;;;;4.90;2.97;;;4.10;1.00;;;;;;4983810;28;20761;-64
2021/01/13 09:03:41;;;;;;;5.30;2.67;;;4.10;1.00;;;;;;4991680;28;20176;-64
2021/01/13 09:06:24;;;;;;;4.13;2.25;;;4.10;1.00;;;;;;4992039;28;20180;-65
2021/01/13 09:08:52;;;;;;;4.45;2.33;;;4.10;1.00;;;;;;4986509;28;20619;-65
2021/01/13 09:11:35;;;;;;;7.13;2.30;;;4.10;1.00;;;;;;4991105;28;20184;-65
2021/01/13 09:14:19;;;;;;;3.80;2.40;;;4.00;1.00;;;;;;4988180;28;20210;-64
2021/01/13 09:16:51;;;;;;;3.20;2.10;;;3.80;1.00;;;;;;4990939;28;20180;-65
2021/01/13 09:19:38;;;;;;;4.05;2.28;;;3.90;1.00;;;;;;4990581;28;20205;-65
2021/01/13 09:22:07;;;;;;;3.45;2.42;;;3.80;1.00;;;;;;4989494;28;20680;-64
2021/01/13 09:24:38;;;;;;;3.95;2.45;;;3.80;1.00;;;;;;4989735;28;20805;-64
2021/01/13 09:27:05;;;;;;;6.80;2.40;;;3.90;1.00;;;;;;4991552;28;20608;-64
2021/01/13 09:29:47;;;;;;;5.03;2.25;;;3.80;1.00;;;;;;4990558;28;20255;-64
2021/01/13 09:32:19;;;;;;;5.55;2.42;;;3.90;1.00;;;;;;4991456;28;20658;-64
2021/01/13 09:34:45;;;;;;;3.60;2.30;;;3.90;1.00;;;;;;4991632;28;20211;-64
2021/01/13 09:37:11;;;;;;;3.53;2.40;;;3.90;1.00;;;;;;4989492;28;20176;-64
2021/01/13 09:39:39;;;;;;;7.32;2.58;;;3.90;1.00;;;;;;4990638;28;20176;-64
2021/01/13 09:42:06;;;;;;;5.20;2.47;;;3.90;1.00;;;;;;4989858;28;20176;-64
2021/01/13 09:44:34;;;;;;;4.43;2.55;;;3.90;1.00;;;;;;4990934;28;20294;-65
2021/01/13 09:47:19;;;;;;;5.43;2.25;;;3.80;1.00;;;;;;4989827;28;20195;-64
2021/01/13 09:49:48;;;;;;;3.13;2.08;;;3.90;1.00;;;;;;4987030;28;20350;-64
2021/01/13 09:52:14;;;;;;;6.13;2.30;;;3.80;1.00;;;;;;4990932;28;20188;-64
2021/01/13 09:54:49;;;;;;;3.90;2.35;;;3.60;1.00;;;;;;4990542;28;20585;-64
2021/01/13 09:57:15;;;;;;;5.22;2.83;;;3.40;1.00;;;;;;4991206;28;20225;-64
2021/01/13 09:59:58;;;;;;;3.30;2.38;;;3.40;1.00;;;;;;4990702;28;20222;-64
2021/01/13 10:02:24;;;;;;;4.40;2.58;;;3.40;1.00;;;;;;4988663;28;20190;-64
2021/01/13 10:04:50;;;;;;;6.15;2.90;;;3.40;1.00;;;;;;4990620;28;20222;-64
2021/01/13 10:07:22;;;;;;;2.25;2.05;;;3.40;1.00;;;;;;4990367;28;20190;-63
2021/01/13 10:09:48;;;;;;;4.60;2.70;;;3.40;1.00;;;;;;4990386;28;20275;-63
2021/01/13 10:12:16;;;;;;;3.55;2.13;;;3.40;1.00;;;;;;4990301;28;20214;-64
2021/01/13 10:14:52;;;;;;;4.28;3.13;;;3.50;1.00;;;;;;4988450;28;20214;-64
2021/01/13 10:17:27;;;;;;;8.23;2.65;;;3.50;1.00;;;;;;4990382;28;20508;-63
2021/01/13 10:19:54;;;;;;;3.53;2.17;;;3.50;1.00;;;;;;4991176;28;20193;-64
2021/01/13 10:22:29;;;;;;;5.75;3.20;;;3.60;1.00;;;;;;4989104;28;20214;-64
2021/01/13 10:24:55;;;;;;;3.58;3.28;;;3.60;1.00;;;;;;4988850;28;20752;-65
2021/01/13 10:27:22;;;;;;;4.47;2.13;;;3.60;1.00;;;;;;4990445;28;20183;-63
2021/01/13 10:29:48;;;;;;;3.75;2.60;;;3.60;1.00;;;;;;4988476;28;20893;-63
2021/01/13 10:32:15;;;;;;;3.63;2.53;;;3.60;1.00;;;;;;4990744;28;20407;-64
2021/01/13 10:34:41;;;;;;;5.82;2.20;;;3.60;1.00;;;;;;4991286;28;20215;-64
2021/01/13 10:37:07;;;;;;;3.70;2.20;;;3.50;1.00;;;;;;4989420;28;20263;-63
2021/01/13 10:39:34;;;;;;;3.80;2.17;;;3.60;1.00;;;;;;4989627;28;20326;-63
2021/01/13 10:42:07;;;;;;;1.77;1.67;;;3.50;1.00;;;;;;4989804;28;20426;-63
2021/01/13 10:44:33;;;;;;;4.82;2.60;;;3.50;1.00;;;;;;4989713;28;20542;-64
2021/01/13 10:47:02;;;;;;;2.25;2.05;;;3.50;1.00;;;;;;4990474;28;20508;-63
2021/01/13 10:49:35;;;;;;;4.22;2.53;;;3.50;1.00;;;;;;4980470;28;20191;-62
2021/01/13 10:52:12;;;;;;;5.07;2.35;;;3.50;1.00;;;;;;4990031;28;20183;-63
2021/01/13 10:54:40;;;;;;;2.10;1.90;;;3.60;1.00;;;;;;4989091;28;20199;-63
2021/01/13 10:57:07;;;;;;;4.70;3.10;;;3.60;1.00;;;;;;4990225;28;21051;-64
2021/01/13 10:59:34;;;;;;;5.40;2.80;;;3.70;1.00;;;;;;4986734;28;20277;-63
2021/01/13 11:02:11;;;;;;;6.38;2.90;;;3.60;1.00;;;;;;4989225;28;20623;-63
2021/01/13 11:04:47;;;;;;;5.20;3.15;;;3.60;1.00;;;;;;4989210;28;20187;-63
2021/01/13 11:07:19;;;;;;;2.88;2.38;;;3.50;1.00;;;;;;4988609;28;20198;-64
2021/01/13 11:09:51;;;;;;;8.93;2.72;;;3.50;1.00;;;;;;4987610;28;20179;-64
2021/01/13 11:12:25;;;;;;;4.97;3.22;;;3.60;1.00;;;;;;4978802;28;20187;-63
2021/01/13 11:14:52;;;;;;;6.00;3.70;;;3.60;1.00;;;;;;4987218;28;20662;-63
2021/01/13 11:17:23;;;;;;;7.90;2.70;;;3.70;1.00;;;;;;4990993;28;20226;-63
2021/01/13 11:19:52;;;;;;;3.28;2.85;;;3.70;1.00;;;;;;4987941;28;20183;-63
2021/01/13 11:22:19;;;;;;;6.55;3.25;;;3.80;1.00;;;;;;4990076;28;20176;-63
2021/01/13 11:24:50;;;;;;;4.95;3.00;;;3.70;1.00;;;;;;4987325;28;20211;-62
2021/01/13 11:27:23;;;;;;;4.60;2.90;;;3.70;1.00;;;;;;4989235;28;20191;-64
2021/01/13 11:29:56;;;;;;;5.03;2.80;;;3.70;1.00;;;;;;4988345;28;20273;-62
2021/01/13 11:32:26;;;;;;;4.80;2.83;;;3.70;1.00;;;;;;4989419;28;20233;-63
2021/01/13 11:34:53;;;;;;;3.85;3.03;;;3.70;1.00;;;;;;4989107;28;20196;-63
2021/01/13 11:37:48;;;;;;;3.25;2.95;;;3.60;1.00;;;;;;4989665;28;20190;-63
2021/01/13 11:40:29;;;;;;;4.63;3.05;;;3.50;1.00;;;;;;4986799;28;20254;-63
2021/01/13 11:43:32;;;;;;;4.30;2.95;;;3.50;1.00;;;;;;4993182;28;20185;-63
2021/01/13 11:46:15;;;;;;;6.22;2.83;;;3.40;1.00;;;;;;4987864;28;20196;-65
2021/01/13 11:48:48;;;;;;;3.60;2.88;;;3.30;1.20;;;;;;4990704;28;20243;-63
2021/01/13 11:51:17;;;;;;;5.78;3.45;;;3.20;1.00;;;;;;4991744;28;20664;-62
2021/01/13 11:53:45;;;;;;;5.65;3.40;;;3.20;6.90;;;;;;4993253;28;20241;-63
2021/01/13 11:56:11;;;;;;;5.68;3.67;;;3.20;12.00;;;;;;4990500;28;20793;-64
2021/01/13 11:58:47;;;;;;;3.60;3.30;;;3.10;13.20;;;;;;4992883;28;20217;-63
2021/01/13 12:01:13;;;;;;;6.53;3.50;;;3.20;17.90;;;;;;4989787;28;20226;-63
2021/01/13 12:03:39;;;;;;;5.57;2.70;;;3.20;18.90;;;;;;4991459;28;20453;-63
2021/01/13 12:06:08;;;;;;;6.30;4.20;;;3.10;13.00;;;;;;4993962;28;20489;-63
2021/01/13 12:08:34;;;;;;;6.32;4.15;;;3.10;13.00;;;;;;4992558;28;20429;-63
2021/01/13 12:11:00;;;;;;;8.67;3.70;;;3.10;15.30;;;;;;4991942;28;21049;-63
2021/01/13 12:13:28;;;;;;;6.63;3.70;;;3.10;23.00;;;;;;4993154;28;20429;-64
2021/01/13 12:15:57;;;;;;;8.13;4.10;;;3.10;14.50;;;;;;4992562;28;20463;-63
2021/01/13 12:18:28;;;;;;;6.03;4.18;;;3.00;12.90;;;;;;4992115;28;20216;-63
2021/01/13 12:20:59;;;;;;;4.47;3.70;;;3.00;17.20;;;;;;4991190;28;20190;-63
2021/01/13 12:23:36;;;;;;;6.72;4.30;;;3.00;9.40;;;;;;4993779;28;20526;-64
2021/01/13 12:26:17;;;;;;;6.97;4.72;;;3.10;9.10;;;;;;4992046;28;20225;-64
2021/01/13 12:28:44;;;;;;;4.30;3.90;;;3.20;1.00;;;;;;4991909;28;20281;-63
2021/01/13 12:31:10;;;;;;;3.35;3.05;;;3.20;1.00;;;;;;4988911;28;20535;-64
2021/01/13 12:33:49;;;;;;;7.32;4.30;;;3.20;1.00;;;;;;4992034;28;20187;-63
2021/01/13 12:36:19;;;;;;;8.55;4.00;;;3.20;1.00;;;;;;4991970;28;20325;-65
2021/01/13 12:38:48;;;;;;;5.10;4.13;;;3.20;1.00;;;;;;4990969;28;20662;-63
2021/01/13 12:41:31;;;;;;;4.68;3.97;;;3.30;1.00;;;;;;4991574;28;20585;-63
2021/01/13 12:44:03;;;;;;;4.95;3.80;;;3.40;1.00;;;;;;4991653;28;20190;-63
2021/01/13 12:46:33;;;;;;;6.63;3.88;;;3.40;1.00;;;;;;4991189;28;20190;-63
2021/01/13 12:48:59;;;;;;;5.55;2.55;;;3.50;1.00;;;;;;4991478;28;20172;-63
2021/01/13 12:51:25;;;;;;;8.95;4.53;;;3.60;1.00;;;;;;4991344;28;20191;-62
2021/01/13 12:53:58;;;;;;;4.85;4.22;;;3.60;1.00;;;;;;4992184;28;20211;-64
2021/01/13 12:56:32;;;;;;;4.60;3.88;;;3.60;1.00;;;;;;4983751;28;20179;-64
2021/01/13 12:59:00;;;;;;;7.50;3.83;;;3.70;1.00;;;;;;4992249;28;20202;-64
2021/01/13 13:01:26;;;;;;;5.63;3.80;;;3.60;1.00;;;;;;4981763;28;20183;-64
2021/01/13 13:03:53;;;;;;;8.85;4.90;;;3.60;1.00;;;;;;4992967;28;20262;-63
2021/01/13 13:06:27;;;;;;;7.55;3.70;;;3.60;1.00;;;;;;4992661;28;20595;-63
2021/01/13 13:08:57;;;;;;;4.32;3.28;;;3.70;1.00;;;;;;4990740;28;20257;-64
2021/01/13 13:11:24;;;;;;;10.18;4.60;;;3.70;1.00;;;;;;4980176;28;20182;-63
2021/01/13 13:13:51;;;;;;;6.75;4.45;;;3.80;1.00;;;;;;4990408;28;20230;-63
2021/01/13 13:16:19;;;;;;;5.18;3.83;;;3.80;1.00;;;;;;4991433;28;20211;-63
2021/01/13 13:18:46;;;;;;;7.38;4.15;;;3.70;1.00;;;;;;4991267;28;20836;-64
2021/01/13 13:21:15;;;;;;;5.03;4.00;;;3.50;1.00;;;;;;4987981;28;20195;-63
2021/01/13 13:23:42;;;;;;;5.30;3.95;;;3.30;11.70;;;;;;4991463;28;20191;-64
2021/01/13 13:26:08;;;;;;;7.30;4.30;;;3.20;21.50;;;;;;4990919;28;20262;-63
2021/01/13 13:28:35;;;;;;;4.70;4.00;;;3.30;20.30;;;;;;4991334;28;20658;-63
2021/01/13 13:31:01;;;;;;;5.65;4.10;;;3.20;15.70;;;;;;4991425;28;20662;-63
2021/01/13 13:33:27;;;;;;;6.32;4.45;;;3.30;16.20;;;;;;4989607;28;20245;-63